Time;durP1;ratioP1;P1;durP2;ratioP2;P2;SDS_P1;SDS_P2;PMS_P1;PMS_P2;Temp;Humidity;BMP_temperature;BMP_pressure;BME280_temperature;BME280_humidity;BME280_pressure;Samples;Min_cycle;Max_cycle;Signal;HPM_P1;HPM_P2
2022/05/26 00:01:27;;;;;;;23.77;11.95;;;13.50;99.90;;;;;;4993318;28;20105;-70
2022/05/26 00:03:54;;;;;;;21.02;11.95;;;13.50;99.90;;;;;;4990183;28;20046;-69
2022/05/26 00:06:23;;;;;;;24.83;12.63;;;13.50;99.90;;;;;;4981038;28;20073;-69
2022/05/26 00:08:50;;;;;;;21.30;12.63;;;13.60;99.90;;;;;;4994688;28;20042;-70
2022/05/26 00:11:20;;;;;;;27.13;12.48;;;13.50;99.90;;;;;;4992160;28;20406;-69
2022/05/26 00:13:46;;;;;;;18.50;11.75;;;13.50;99.90;;;;;;4992286;28;20049;-72
2022/05/26 00:16:13;;;;;;;18.73;12.10;;;13.50;99.90;;;;;;4994171;28;20042;-69
2022/05/26 00:18:39;;;;;;;22.38;12.43;;;13.50;99.90;;;;;;4993573;28;20494;-70
2022/05/26 00:34:08;;;;;;;22.65;12.10;;;13.50;99.90;;;;;;5001705;28;20969;-68
2022/05/26 00:36:46;;;;;;;19.77;11.55;;;13.50;99.90;;;;;;4995192;28;20053;-69
2022/05/26 00:39:18;;;;;;;19.55;11.30;;;13.50;99.90;;;;;;4994524;28;20050;-69
2022/05/26 00:41:47;;;;;;;23.08;12.77;;;13.50;99.90;;;;;;4979329;28;20057;-70
2022/05/26 00:44:14;;;;;;;26.25;12.57;;;13.60;99.90;;;;;;4996189;28;20049;-70
2022/05/26 00:47:09;;;;;;;24.73;11.40;;;13.50;99.90;;;;;;4991704;28;20060;-71
2022/05/26 00:49:50;;;;;;;22.25;11.65;;;13.50;99.90;;;;;;4986478;28;20054;-69
2022/05/26 00:52:21;;;;;;;24.73;11.30;;;13.50;99.90;;;;;;4993903;28;20049;-69
2022/05/26 00:54:50;;;;;;;20.95;10.65;;;13.50;99.90;;;;;;4997881;28;20057;-69
2022/05/26 00:57:29;;;;;;;21.90;11.07;;;13.50;99.90;;;;;;4994009;28;20085;-69
2022/05/26 01:00:00;;;;;;;22.60;11.55;;;13.50;99.90;;;;;;4987166;28;20062;-69
2022/05/26 01:02:34;;;;;;;23.17;11.98;;;13.50;99.90;;;;;;4983093;28;20143;-69
2022/05/26 01:05:12;;;;;;;28.33;11.93;;;13.50;99.90;;;;;;4991802;28;20402;-69
2022/05/26 01:07:39;;;;;;;28.52;11.45;;;13.40;99.90;;;;;;4996339;28;20057;-69
2022/05/26 01:10:08;;;;;;;26.80;12.27;;;13.40;99.90;;;;;;4994347;28;20469;-72
2022/05/26 01:12:34;;;;;;;30.05;12.30;;;13.40;99.90;;;;;;4976146;28;20050;-70
2022/05/26 01:15:27;;;;;;;29.35;12.60;;;13.40;99.90;;;;;;4993935;28;20038;-70
2022/05/26 01:18:38;;;;;;;33.22;12.15;;;13.40;99.90;;;;;;4980189;28;20056;-69
2022/05/26 01:21:25;;;;;;;31.33;12.30;;;13.40;99.90;;;;;;4991437;28;20050;-70
2022/05/26 01:24:33;;;;;;;29.33;12.63;;;13.40;99.90;;;;;;4993299;28;20454;-69
2022/05/26 01:27:14;;;;;;;30.88;12.63;;;13.50;99.90;;;;;;5003065;28;20125;-71
2022/05/26 01:29:43;;;;;;;33.35;12.57;;;13.40;99.90;;;;;;4991991;28;20462;-69
2022/05/26 01:32:26;;;;;;;36.05;12.27;;;13.40;99.90;;;;;;4991539;28;20042;-69
2022/05/26 01:35:21;;;;;;;41.30;13.15;;;13.40;99.90;;;;;;4992015;28;20053;-70
2022/05/26 01:38:18;;;;;;;40.00;13.70;;;13.50;99.90;;;;;;4992586;28;20042;-69
2022/05/26 01:41:10;;;;;;;33.85;12.25;;;13.50;99.90;;;;;;5007873;28;20058;-69
2022/05/26 01:43:39;;;;;;;38.83;13.38;;;13.50;99.90;;;;;;4972813;28;20156;-69
2022/05/26 01:46:20;;;;;;;32.55;13.13;;;13.50;99.90;;;;;;4988362;28;20141;-69
2022/05/26 01:48:55;;;;;;;38.58;13.95;;;13.60;99.90;;;;;;4982575;28;20057;-70
2022/05/26 01:51:32;;;;;;;32.35;13.05;;;13.60;99.90;;;;;;4989268;28;20478;-69
2022/05/26 01:54:08;;;;;;;33.60;12.77;;;13.60;99.90;;;;;;4991901;28;20054;-70
2022/05/26 01:56:48;;;;;;;38.67;13.50;;;13.60;99.90;;;;;;4974976;28;20085;-69
2022/05/26 01:59:24;;;;;;;40.08;13.73;;;13.60;99.90;;;;;;4977360;28;20407;-69
2022/05/26 02:02:25;;;;;;;33.50;12.40;;;13.60;99.90;;;;;;4970818;28;20479;-70
2022/05/26 02:04:56;;;;;;;39.00;13.68;;;13.60;99.90;;;;;;5003883;28;20511;-71
2022/05/26 02:07:46;;;;;;;32.40;10.70;;;13.60;99.90;;;;;;4967380;28;20061;-71
2022/05/26 02:10:23;;;;;;;36.55;12.52;;;13.60;99.90;;;;;;4992935;28;20201;-69
2022/05/26 02:12:54;;;;;;;40.42;11.85;;;13.60;99.90;;;;;;4993311;28;20180;-72
2022/05/26 02:15:30;;;;;;;41.00;11.88;;;13.60;99.90;;;;;;5008118;28;20065;-70
2022/05/26 02:18:04;;;;;;;28.88;9.88;;;13.60;99.90;;;;;;4985703;28;20042;-70
2022/05/26 02:20:47;;;;;;;32.28;9.48;;;13.60;99.90;;;;;;4984615;28;20053;-70
2022/05/26 02:23:24;;;;;;;29.00;9.73;;;13.60;99.90;;;;;;4985129;28;20057;-71
2022/05/26 02:25:50;;;;;;;32.00;9.55;;;13.50;99.90;;;;;;4989939;28;20487;-70
2022/05/26 02:28:16;;;;;;;31.17;9.55;;;13.60;99.90;;;;;;4990677;28;20133;-71
2022/05/26 02:30:43;;;;;;;36.53;10.65;;;13.60;99.90;;;;;;4994526;28;20050;-70
2022/05/26 02:33:14;;;;;;;23.95;7.60;;;13.60;99.90;;;;;;4986641;28;20045;-70
2022/05/26 02:35:47;;;;;;;41.58;11.02;;;13.60;99.90;;;;;;4974344;28;20453;-71
2022/05/26 02:38:22;;;;;;;35.17;10.75;;;13.60;99.90;;;;;;4991066;28;20042;-69
2022/05/26 02:40:50;;;;;;;34.47;11.15;;;13.60;99.90;;;;;;4973265;28;20054;-70
2022/05/26 02:43:25;;;;;;;38.22;10.18;;;13.60;99.90;;;;;;4985287;28;20116;-71
2022/05/26 02:46:34;;;;;;;39.58;11.70;;;13.60;99.90;;;;;;4993638;28;20060;-72
2022/05/26 02:49:19;;;;;;;34.25;9.55;;;13.70;99.90;;;;;;4992216;28;20391;-69
2022/05/26 02:52:11;;;;;;;40.20;11.05;;;13.70;99.90;;;;;;4979487;28;20116;-69
2022/05/26 02:54:53;;;;;;;40.58;10.55;;;13.70;99.90;;;;;;4985187;28;20054;-69
2022/05/26 02:57:34;;;;;;;41.38;10.07;;;13.70;99.90;;;;;;4990967;28;20524;-69
2022/05/26 03:00:23;;;;;;;33.63;10.13;;;13.70;99.90;;;;;;4986771;28;20050;-69
2022/05/26 03:03:04;;;;;;;27.63;9.10;;;13.70;99.90;;;;;;4976838;28;20490;-70
2022/05/26 03:05:40;;;;;;;35.25;10.50;;;13.70;99.90;;;;;;4985908;28;20501;-71
2022/05/26 03:08:13;;;;;;;27.85;8.32;;;13.70;99.90;;;;;;4987678;28;20053;-69
2022/05/26 03:10:39;;;;;;;31.80;8.38;;;13.70;99.90;;;;;;4986248;28;20050;-69
2022/05/26 03:13:05;;;;;;;25.35;7.43;;;13.70;99.90;;;;;;4976564;28;20042;-69
2022/05/26 03:15:33;;;;;;;27.40;7.50;;;13.70;99.90;;;;;;4970323;28;20042;-69
2022/05/26 03:18:01;;;;;;;30.00;6.90;;;13.60;99.90;;;;;;5001052;28;20045;-69
2022/05/26 03:20:28;;;;;;;29.60;7.20;;;13.60;99.90;;;;;;4986770;28;20551;-71
2022/05/26 03:22:55;;;;;;;29.55;6.40;;;13.60;99.90;;;;;;4973858;28;20094;-69
2022/05/26 03:25:21;;;;;;;26.15;8.00;;;13.60;99.90;;;;;;4988341;28;20510;-69
2022/05/26 03:27:47;;;;;;;31.75;7.75;;;13.60;99.90;;;;;;5004511;28;20054;-69
2022/05/26 03:30:14;;;;;;;28.13;7.40;;;13.60;99.90;;;;;;4976080;28;20050;-69
2022/05/26 03:32:41;;;;;;;32.47;6.85;;;13.50;99.90;;;;;;4984528;28;20046;-70
2022/05/26 03:40:51;;;;;;;20.58;6.00;;;13.50;99.90;;;;;;4995670;28;20061;-69
2022/05/26 03:43:17;;;;;;;25.77;6.60;;;13.40;99.90;;;;;;4991187;28;20053;-72
2022/05/26 03:45:44;;;;;;;24.70;7.28;;;13.40;99.90;;;;;;4994841;28;20057;-70
2022/05/26 03:48:10;;;;;;;29.90;7.22;;;13.40;99.90;;;;;;4988714;28;20046;-71
2022/05/26 03:50:37;;;;;;;27.02;6.90;;;13.40;99.90;;;;;;5008299;28;20077;-69
2022/05/26 03:53:03;;;;;;;26.42;6.90;;;13.40;99.90;;;;;;5002886;28;20065;-70
2022/05/26 03:55:30;;;;;;;21.45;5.93;;;13.40;99.90;;;;;;4979466;28;20053;-69
2022/05/26 03:57:59;;;;;;;21.42;5.80;;;13.40;99.90;;;;;;4974849;28;20499;-69
2022/05/26 04:00:26;;;;;;;26.08;6.72;;;13.50;99.90;;;;;;4962185;28;20518;-69
2022/05/26 04:02:52;;;;;;;34.00;7.78;;;13.40;99.90;;;;;;4987788;28;20124;-70
2022/05/26 04:05:18;;;;;;;32.53;6.63;;;13.40;99.90;;;;;;4992170;28;20156;-70
2022/05/26 04:07:44;;;;;;;27.77;6.90;;;13.40;99.90;;;;;;4976332;28;20096;-70
2022/05/26 04:10:11;;;;;;;24.88;6.82;;;13.40;99.90;;;;;;4992133;28;20096;-69
2022/05/26 04:12:38;;;;;;;28.70;6.72;;;13.40;99.90;;;;;;4991282;28;20045;-71
2022/05/26 04:15:06;;;;;;;25.02;6.38;;;13.30;99.90;;;;;;4990156;28;20089;-69
2022/05/26 04:17:32;;;;;;;29.48;6.50;;;13.30;99.90;;;;;;4987276;28;20046;-70
2022/05/26 04:20:00;;;;;;;29.65;5.75;;;13.30;99.90;;;;;;4975911;28;20471;-70
2022/05/26 04:22:25;;;;;;;28.92;5.75;;;13.30;99.90;;;;;;4977592;28;20072;-69
2022/05/26 04:24:55;;;;;;;22.00;5.10;;;13.30;99.90;;;;;;4993141;28;20049;-70
2022/05/26 04:27:24;;;;;;;17.88;4.68;;;13.30;99.90;;;;;;4976631;28;20046;-70
2022/05/26 04:29:50;;;;;;;21.50;5.00;;;13.30;99.90;;;;;;4988428;28;20419;-69
2022/05/26 04:32:16;;;;;;;20.63;4.97;;;13.40;99.90;;;;;;4996171;28;20054;-70
2022/05/26 04:34:45;;;;;;;21.73;4.63;;;13.30;99.90;;;;;;4993604;28;20080;-70
2022/05/26 04:37:11;;;;;;;16.63;3.90;;;13.40;99.90;;;;;;4989604;28;20039;-69
2022/05/26 04:39:37;;;;;;;17.02;4.55;;;13.30;99.90;;;;;;4987648;28;20052;-72
2022/05/26 04:42:04;;;;;;;19.77;4.50;;;13.30;99.90;;;;;;4991197;28;20046;-70
2022/05/26 04:44:37;;;;;;;18.63;4.15;;;13.30;99.90;;;;;;4989505;28;20450;-69
2022/05/26 04:47:03;;;;;;;15.35;3.22;;;13.30;99.90;;;;;;4983659;28;20142;-69
2022/05/26 04:49:29;;;;;;;18.02;4.00;;;13.30;99.90;;;;;;4989105;28;20081;-69
2022/05/26 04:51:55;;;;;;;15.52;3.88;;;13.30;99.90;;;;;;4986261;28;20420;-70
2022/05/26 04:54:22;;;;;;;18.73;3.83;;;13.30;99.90;;;;;;4982351;28;20073;-70
2022/05/26 04:56:49;;;;;;;11.75;3.60;;;13.30;99.90;;;;;;4992224;28;20081;-69
2022/05/26 04:59:16;;;;;;;17.92;4.05;;;13.30;99.90;;;;;;4987927;28;20092;-69
2022/05/26 05:01:42;;;;;;;13.20;4.05;;;13.40;99.90;;;;;;4989839;28;20072;-71
2022/05/26 05:04:08;;;;;;;12.40;3.65;;;13.40;99.90;;;;;;4993091;28;20172;-70
2022/05/26 05:06:34;;;;;;;17.30;3.67;;;13.40;99.90;;;;;;4963263;28;20529;-69
2022/05/26 05:09:00;;;;;;;11.23;3.00;;;13.60;99.90;;;;;;4992520;28;20057;-69
2022/05/26 05:11:26;;;;;;;12.38;2.90;;;13.60;99.90;;;;;;4985361;28;20045;-70
2022/05/26 05:13:53;;;;;;;9.13;2.67;;;13.70;99.90;;;;;;4991304;28;20049;-69
2022/05/26 05:16:30;;;;;;;14.05;2.70;;;13.70;99.90;;;;;;4961199;28;20124;-70
2022/05/26 05:18:57;;;;;;;12.27;2.78;;;13.70;99.90;;;;;;4992421;28;20156;-68
2022/05/26 05:21:38;;;;;;;7.13;2.33;;;13.70;99.90;;;;;;4991521;28;20045;-70
2022/05/26 05:24:11;;;;;;;11.57;2.83;;;13.70;99.90;;;;;;4982343;28;20096;-69
2022/05/26 05:26:40;;;;;;;11.32;2.30;;;13.80;99.90;;;;;;4977284;28;20057;-69
2022/05/26 05:29:10;;;;;;;12.23;2.30;;;13.80;99.90;;;;;;4955484;28;20621;-68
2022/05/26 05:31:49;;;;;;;9.73;2.33;;;13.90;99.90;;;;;;4992402;28;20457;-69
2022/05/26 05:34:21;;;;;;;10.40;2.00;;;14.00;99.90;;;;;;4986560;28;20545;-68
2022/05/26 05:36:47;;;;;;;8.00;2.08;;;14.10;99.90;;;;;;4993728;28;20081;-68
2022/05/26 05:39:13;;;;;;;10.65;2.30;;;14.10;99.90;;;;;;4991413;28;20054;-70
2022/05/26 05:41:39;;;;;;;10.18;2.00;;;14.20;99.90;;;;;;4985940;28;20068;-68
2022/05/26 05:44:06;;;;;;;8.18;1.90;;;14.30;99.90;;;;;;4970531;28;20049;-69
2022/05/26 05:46:34;;;;;;;9.88;2.00;;;14.40;99.90;;;;;;4971949;28;20042;-69
2022/05/26 05:49:02;;;;;;;8.65;2.00;;;14.40;99.90;;;;;;4973877;28;20422;-68
2022/05/26 05:51:28;;;;;;;6.68;1.80;;;14.50;99.90;;;;;;4990124;28;20061;-69
2022/05/26 05:53:55;;;;;;;10.98;1.90;;;14.50;99.90;;;;;;4990231;28;20391;-69
2022/05/26 05:56:20;;;;;;;7.40;2.00;;;14.50;99.90;;;;;;4981034;28;20045;-71
2022/05/26 05:58:46;;;;;;;5.60;1.90;;;14.60;99.90;;;;;;4991985;28;20128;-69
2022/05/26 06:01:12;;;;;;;4.22;1.45;;;14.70;99.90;;;;;;4988144;28;20577;-70
2022/05/26 06:03:39;;;;;;;8.48;1.70;;;14.70;99.90;;;;;;4999827;28;20060;-69
2022/05/26 06:06:07;;;;;;;6.93;1.55;;;14.70;99.90;;;;;;4993579;28;20487;-69
2022/05/26 06:08:33;;;;;;;10.05;1.85;;;14.80;99.90;;;;;;5010504;28;20077;-69
2022/05/26 06:11:00;;;;;;;9.20;1.38;;;14.90;99.90;;;;;;4987959;28;20487;-68
2022/05/26 06:13:26;;;;;;;7.45;1.33;;;14.90;99.90;;;;;;4990736;28;20299;-70
2022/05/26 06:15:53;;;;;;;10.07;2.00;;;14.90;99.90;;;;;;4983719;28;20483;-69
2022/05/26 06:18:19;;;;;;;5.00;1.30;;;15.00;99.90;;;;;;4967012;28;20490;-69
2022/05/26 06:20:45;;;;;;;6.07;1.42;;;15.00;99.90;;;;;;4975786;28;20037;-69
2022/05/26 06:23:11;;;;;;;6.13;1.50;;;15.10;99.90;;;;;;5010179;28;20038;-69
2022/05/26 06:25:37;;;;;;;5.93;1.30;;;15.10;99.90;;;;;;4989867;28;20494;-69
2022/05/26 06:30:49;;;;;;;11.07;1.55;;;15.30;99.90;;;;;;5009009;28;20057;-70
2022/05/26 06:38:45;;;;;;;5.82;1.60;;;15.40;99.90;;;;;;4991914;28;20556;-68
2022/05/26 06:44:03;;;;;;;8.00;1.20;;;15.50;99.90;;;;;;4990639;28;20568;-70
2022/05/26 06:46:30;;;;;;;4.60;1.17;;;15.60;99.90;;;;;;4987903;28;20092;-74
2022/05/26 06:48:57;;;;;;;5.85;1.42;;;15.70;99.90;;;;;;4985050;28;20050;-73
2022/05/26 06:51:26;;;;;;;3.53;1.10;;;15.70;99.90;;;;;;4987751;28;20089;-70
2022/05/26 06:53:52;;;;;;;7.10;1.25;;;15.70;99.90;;;;;;4986462;28;20368;-70
2022/05/26 06:56:19;;;;;;;4.97;1.42;;;15.80;99.90;;;;;;4988343;28;20050;-69
2022/05/26 06:58:46;;;;;;;5.88;1.50;;;15.80;99.90;;;;;;4988889;28;20061;-69
2022/05/26 07:01:14;;;;;;;4.35;1.23;;;16.00;99.90;;;;;;4991933;28;20400;-68
2022/05/26 07:03:41;;;;;;;6.38;1.30;;;16.10;99.90;;;;;;5001116;28;20054;-69
2022/05/26 07:06:22;;;;;;;2.30;1.10;;;16.30;99.90;;;;;;4974225;28;20044;-70
2022/05/26 07:08:49;;;;;;;7.72;1.75;;;16.20;99.90;;;;;;5005798;28;20049;-70
2022/05/26 07:11:16;;;;;;;7.90;1.52;;;16.20;99.90;;;;;;4978410;28;20549;-68
2022/05/26 07:13:43;;;;;;;5.47;1.40;;;16.00;99.90;;;;;;4978913;28;20050;-69
2022/05/26 07:16:10;;;;;;;5.68;1.40;;;15.80;99.90;;;;;;4999271;28;20498;-68
2022/05/26 07:18:38;;;;;;;9.05;1.80;;;15.90;99.90;;;;;;5007961;28;20050;-70
2022/05/26 07:21:06;;;;;;;7.00;1.83;;;16.30;99.90;;;;;;4980794;28;20077;-69
2022/05/26 07:23:32;;;;;;;4.57;1.23;;;16.50;99.90;;;;;;4983305;28;20080;-71
2022/05/26 07:25:59;;;;;;;5.95;1.35;;;16.30;99.90;;;;;;4989876;28;20057;-68
2022/05/26 07:28:25;;;;;;;5.68;1.50;;;16.20;99.90;;;;;;4993126;28;20073;-69
2022/05/26 07:30:54;;;;;;;6.05;1.40;;;16.20;99.90;;;;;;4993888;28;20046;-69
2022/05/26 07:33:20;;;;;;;9.02;1.23;;;16.10;99.90;;;;;;4992728;28;20041;-68
2022/05/26 07:35:46;;;;;;;4.85;1.10;;;16.00;99.90;;;;;;4994038;28;20133;-68
2022/05/26 07:43:42;;;;;;;4.13;1.05;;;15.80;99.90;;;;;;4997794;28;20049;-67
2022/05/26 07:46:10;;;;;;;4.55;1.20;;;16.00;99.90;;;;;;5008292;28;20108;-68
2022/05/26 07:48:37;;;;;;;3.22;0.93;;;16.10;99.90;;;;;;4986407;28;20065;-68
2022/05/26 07:51:03;;;;;;;3.85;0.80;;;16.10;99.90;;;;;;4979126;28;20054;-70
2022/05/26 07:53:29;;;;;;;2.80;1.00;;;16.10;99.90;;;;;;4989991;28;20042;-69
2022/05/26 07:55:55;;;;;;;3.53;1.08;;;16.30;99.90;;;;;;4988309;28;20140;-69
2022/05/26 07:58:21;;;;;;;5.95;1.10;;;16.30;99.90;;;;;;4993365;28;20538;-69
2022/05/26 08:00:49;;;;;;;5.50;1.30;;;16.50;99.90;;;;;;5002990;28;20049;-69
2022/05/26 08:03:15;;;;;;;6.32;1.30;;;16.60;99.90;;;;;;4993105;28;20085;-69
2022/05/26 08:05:41;;;;;;;4.47;1.15;;;16.70;99.90;;;;;;4992512;28;20435;-69
2022/05/26 08:08:08;;;;;;;5.60;1.10;;;16.70;99.90;;;;;;4996010;28;20054;-69
2022/05/26 08:10:34;;;;;;;9.25;1.40;;;16.60;99.90;;;;;;5012782;28;20399;-69
2022/05/26 08:13:00;;;;;;;8.45;1.30;;;16.60;99.90;;;;;;4973984;28;20062;-67
2022/05/26 08:15:26;;;;;;;2.95;1.35;;;16.70;99.90;;;;;;5005070;28;20471;-71
2022/05/26 08:17:52;;;;;;;6.40;1.40;;;16.70;99.90;;;;;;5008312;28;20479;-69
2022/05/26 08:20:18;;;;;;;4.80;1.08;;;16.60;99.90;;;;;;4992487;28;20364;-68
2022/05/26 08:22:44;;;;;;;6.10;1.23;;;17.20;99.90;;;;;;4998396;28;20482;-69
2022/05/26 08:25:10;;;;;;;5.57;1.00;;;16.70;99.90;;;;;;4977810;28;20057;-69
2022/05/26 08:27:36;;;;;;;5.35;1.02;;;16.80;99.90;;;;;;4997325;28;20104;-69
2022/05/26 08:30:02;;;;;;;8.65;1.33;;;16.90;99.90;;;;;;4983410;28;20047;-68
2022/05/26 08:32:28;;;;;;;5.95;1.10;;;17.10;99.90;;;;;;4987678;28;20121;-71
2022/05/26 08:35:02;;;;;;;2.35;1.00;;;17.10;99.90;;;;;;4993818;28;20058;-68
2022/05/26 08:37:28;;;;;;;7.20;1.30;;;17.10;99.90;;;;;;4987188;28;20049;-69
2022/05/26 08:39:54;;;;;;;2.80;0.75;;;17.20;99.90;;;;;;4959635;28;20069;-68
2022/05/26 08:42:25;;;;;;;6.82;1.17;;;17.10;99.90;;;;;;4979901;28;20053;-68
2022/05/26 08:44:55;;;;;;;3.47;0.80;;;17.40;99.90;;;;;;4992551;28;20051;-69
2022/05/26 08:47:23;;;;;;;4.63;1.10;;;17.80;99.90;;;;;;4991907;28;20565;-67
2022/05/26 08:49:56;;;;;;;4.07;1.20;;;18.00;99.90;;;;;;4991957;28;20050;-69
2022/05/26 08:52:31;;;;;;;2.75;0.95;;;18.00;99.90;;;;;;4983544;28;20097;-70
2022/05/26 08:55:16;;;;;;;4.45;0.82;;;17.70;99.90;;;;;;4995971;28;20101;-68
2022/05/26 08:57:44;;;;;;;3.00;0.88;;;17.50;99.90;;;;;;4995949;28;20406;-69
2022/05/26 09:00:14;;;;;;;3.45;0.75;;;17.40;99.90;;;;;;4996082;28;20046;-69
2022/05/26 09:02:41;;;;;;;4.47;0.90;;;17.70;99.90;;;;;;4996107;28;20151;-67
2022/05/26 09:05:14;;;;;;;7.28;0.77;;;17.70;99.90;;;;;;4995573;28;20042;-69
2022/05/26 09:13:38;;;;;;;5.20;1.23;;;17.70;99.90;;;;;;4985690;28;20065;-70
2022/05/26 09:16:06;;;;;;;4.47;1.20;;;17.70;99.90;;;;;;4992313;28;20073;-68
2022/05/26 09:18:32;;;;;;;3.35;0.75;;;17.80;99.90;;;;;;4990405;28;20125;-69
2022/05/26 09:21:13;;;;;;;4.72;1.00;;;17.90;99.90;;;;;;4990392;28;20082;-70
2022/05/26 09:23:43;;;;;;;6.35;0.88;;;18.10;99.90;;;;;;4993062;28;20050;-70
2022/05/26 09:26:11;;;;;;;5.80;1.27;;;18.30;99.90;;;;;;4993586;28;20041;-68
2022/05/26 09:28:44;;;;;;;3.47;0.65;;;18.40;99.90;;;;;;4995827;28;20132;-68
2022/05/26 09:31:45;;;;;;;5.43;0.93;;;18.30;99.90;;;;;;4992081;28;20053;-69
2022/05/26 09:34:24;;;;;;;5.60;1.20;;;18.10;99.90;;;;;;4975830;28;20104;-68
2022/05/26 09:37:03;;;;;;;4.68;0.80;;;18.70;99.90;;;;;;5008616;28;20045;-69
2022/05/26 09:39:42;;;;;;;4.13;0.85;;;18.50;99.90;;;;;;4992637;28;20050;-68
2022/05/26 09:42:17;;;;;;;2.95;0.70;;;18.20;99.90;;;;;;4994191;28;20065;-69
2022/05/26 09:45:13;;;;;;;3.00;0.90;;;18.10;99.90;;;;;;4992415;28;20141;-69
2022/05/26 09:47:53;;;;;;;3.72;0.80;;;18.10;99.90;;;;;;5001600;28;20046;-68
2022/05/26 09:50:31;;;;;;;3.05;0.60;;;18.00;99.90;;;;;;4981090;28;20149;-68
2022/05/26 09:52:58;;;;;;;7.30;0.85;;;18.20;99.90;;;;;;4990097;28;20471;-68
2022/05/26 09:55:32;;;;;;;2.90;0.60;;;18.60;99.90;;;;;;4990191;28;20034;-68
2022/05/26 09:58:34;;;;;;;3.63;0.60;;;18.80;99.90;;;;;;4974841;28;20081;-71
2022/05/26 10:01:25;;;;;;;6.90;0.80;;;18.60;99.90;;;;;;4994831;28;20107;-70
2022/05/26 10:04:19;;;;;;;4.25;0.90;;;18.50;99.90;;;;;;4990492;28;20053;-69
2022/05/26 10:07:04;;;;;;;3.47;0.80;;;18.40;99.90;;;;;;5003852;28;20104;-69
2022/05/26 10:09:53;;;;;;;2.03;0.60;;;18.60;99.90;;;;;;4991299;28;20530;-71
2022/05/26 10:12:49;;;;;;;1.17;0.52;;;18.80;99.90;;;;;;4990440;28;20065;-71
2022/05/26 10:15:49;;;;;;;2.97;0.57;;;18.90;99.90;;;;;;4991026;28;20092;-71
2022/05/26 10:18:23;;;;;;;3.45;0.60;;;19.10;99.90;;;;;;4975422;28;20551;-72
2022/05/26 10:21:11;;;;;;;3.05;0.57;;;19.10;99.90;;;;;;4969841;28;20388;-72
2022/05/26 10:23:45;;;;;;;1.67;0.60;;;19.30;99.90;;;;;;4975460;28;20046;-69
2022/05/26 10:26:20;;;;;;;4.40;0.70;;;19.00;99.90;;;;;;4987811;28;20046;-70
2022/05/26 10:29:14;;;;;;;3.53;0.70;;;19.30;99.90;;;;;;4986716;28;20057;-70
2022/05/26 10:32:01;;;;;;;1.13;0.50;;;19.30;99.90;;;;;;4995986;28;20047;-71
2022/05/26 10:34:54;;;;;;;3.08;0.80;;;19.00;99.90;;;;;;4984411;28;20041;-70
2022/05/26 10:37:46;;;;;;;3.75;0.90;;;19.20;99.90;;;;;;5007532;28;20046;-71
2022/05/26 10:40:46;;;;;;;1.65;0.60;;;19.70;99.90;;;;;;4985701;28;20100;-68
2022/05/26 10:43:20;;;;;;;3.17;0.80;;;19.80;99.90;;;;;;4985173;28;20053;-70
2022/05/26 10:45:48;;;;;;;4.53;0.73;;;20.00;99.90;;;;;;4993861;28;20057;-72
2022/05/26 10:48:19;;;;;;;7.05;0.90;;;19.90;99.90;;;;;;5010537;28;20104;-69
2022/05/26 10:51:16;;;;;;;2.27;0.67;;;19.60;99.90;;;;;;4993820;28;20057;-70
2022/05/26 10:53:54;;;;;;;2.08;0.63;;;19.40;99.90;;;;;;4984226;28;20305;-71
2022/05/26 10:56:29;;;;;;;3.85;1.10;;;19.10;99.90;;;;;;4977092;28;20140;-70
2022/05/26 10:59:24;;;;;;;3.90;0.80;;;19.10;99.90;;;;;;4992729;28;20457;-68
2022/05/26 11:02:09;;;;;;;2.88;0.65;;;19.20;99.90;;;;;;4984009;28;20129;-68
2022/05/26 11:05:05;;;;;;;3.88;0.85;;;19.40;99.90;;;;;;4990105;28;20068;-71
2022/05/26 11:07:37;;;;;;;5.35;1.00;;;19.40;99.90;;;;;;4973760;28;20046;-68
2022/05/26 11:10:22;;;;;;;4.93;1.10;;;19.00;99.90;;;;;;4990894;28;20053;-70
2022/05/26 11:13:04;;;;;;;2.47;0.70;;;19.00;99.90;;;;;;5005141;28;20585;-70
2022/05/26 11:18:38;;;;;;;3.40;1.20;;;19.20;99.90;;;;;;4988311;28;20108;-70
2022/05/26 11:21:04;;;;;;;2.85;0.70;;;19.20;99.90;;;;;;4989352;28;20057;-69
2022/05/26 11:23:37;;;;;;;3.60;0.73;;;19.20;99.90;;;;;;4999840;28;20111;-69
2022/05/26 11:26:26;;;;;;;4.13;1.30;;;19.30;99.90;;;;;;4988274;28;20164;-68
2022/05/26 11:29:00;;;;;;;3.92;0.80;;;19.30;99.90;;;;;;4991238;28;20053;-68
2022/05/26 11:37:28;;;;;;;3.72;0.90;;;19.70;99.90;;;;;;5005375;28;20168;-68
2022/05/26 11:40:05;;;;;;;5.97;1.10;;;19.30;99.90;;;;;;4972305;28;20038;-68
2022/05/26 11:42:38;;;;;;;6.93;1.20;;;19.40;99.90;;;;;;4987937;28;20058;-69
2022/05/26 11:45:13;;;;;;;5.20;0.90;;;19.80;99.90;;;;;;4990414;28;20104;-69
2022/05/26 11:48:02;;;;;;;3.20;0.93;;;19.90;99.90;;;;;;4993795;28;20049;-68
2022/05/26 11:50:43;;;;;;;3.80;1.02;;;19.60;99.90;;;;;;4986893;28;20054;-71
2022/05/26 11:53:28;;;;;;;3.30;1.10;;;19.20;99.90;;;;;;4988647;28;20093;-69
2022/05/26 11:56:03;;;;;;;4.22;1.27;;;19.30;99.90;;;;;;4983707;28;20523;-69
2022/05/26 11:58:44;;;;;;;5.82;1.48;;;19.70;99.90;;;;;;4992874;28;20473;-70
2022/05/26 12:01:13;;;;;;;;;;;20.30;99.90;;;;;;4975870;28;20049;-68
2022/05/26 12:03:50;;;;;;;;;;;20.30;99.90;;;;;;4994025;28;19921;-68
2022/05/26 12:06:29;;;;;;;;;;;19.60;99.90;;;;;;4993849;28;19925;-68
2022/05/26 12:09:04;;;;;;;;;;;18.80;99.90;;;;;;4976428;28;19968;-69
2022/05/26 12:11:49;;;;;;;;;;;18.50;99.90;;;;;;4994127;28;19922;-69
2022/05/26 12:14:23;;;;;;;;;;;18.60;99.90;;;;;;5007381;28;19929;-68
2022/05/26 12:16:49;;;;;;;;;;;19.20;99.90;;;;;;4988705;28;19975;-69
2022/05/26 12:19:35;;;;;;;;;;;19.30;99.90;;;;;;5009027;28;19944;-68
2022/05/26 12:22:13;;;;;;;;;;;19.20;99.90;;;;;;4993981;28;20377;-69
2022/05/26 12:24:39;;;;;;;;;;;19.00;99.90;;;;;;5011733;28;20188;-69
2022/05/26 12:27:05;;;;;;;;;;;18.60;99.90;;;;;;4994155;28;20058;-69
2022/05/26 12:29:57;;;;;;;;;;;18.20;99.90;;;;;;4993497;28;19921;-69
2022/05/26 12:32:23;;;;;;;;;;;18.10;99.90;;;;;;4994546;28;19925;-68
2022/05/26 12:35:03;;;;;;;;;;;18.00;99.90;;;;;;4993510;28;19929;-68
2022/05/26 12:37:37;;;;;;;;;;;18.10;99.90;;;;;;4993642;28;20063;-68
2022/05/26 12:40:12;;;;;;;;;;;18.50;99.90;;;;;;4992459;28;20024;-68
2022/05/26 12:42:57;;;;;;;;;;;18.90;99.90;;;;;;5010247;28;19932;-68
2022/05/26 12:45:26;;;;;;;;;;;18.90;99.90;;;;;;4999037;28;20325;-70
2022/05/26 12:48:11;;;;;;;;;;;18.70;99.90;;;;;;4991046;28;20259;-70
2022/05/26 12:50:43;;;;;;;;;;;18.40;99.90;;;;;;4992419;28;19931;-68
2022/05/26 12:53:17;;;;;;;;;;;18.50;99.90;;;;;;4992604;28;19921;-67
2022/05/26 12:56:00;;;;;;;;;;;18.40;99.90;;;;;;4996278;28;20035;-70
2022/05/26 12:58:36;;;;;;;;;;;18.30;99.90;;;;;;5014110;28;19932;-69
2022/05/26 13:01:03;;;;;;;;;;;18.30;99.90;;;;;;4980360;28;19964;-68
2022/05/26 13:03:47;;;;;;;;;;;18.60;99.90;;;;;;4996875;28;19922;-67
2022/05/26 13:06:22;;;;;;;;;;;18.70;99.90;;;;;;4995226;28;19995;-67
2022/05/26 13:09:04;;;;;;;;;;;18.60;99.90;;;;;;4990779;28;20321;-68
2022/05/26 13:11:33;;;;;;;;;;;18.70;99.90;;;;;;5007471;28;19921;-70
2022/05/26 13:14:00;;;;;;;;;;;18.70;99.90;;;;;;4993093;28;19921;-69
2022/05/26 13:16:25;;;;;;;;;;;18.70;99.90;;;;;;5010251;28;20281;-69
2022/05/26 13:18:55;;;;;;;;;;;18.40;99.90;;;;;;4993354;28;19921;-68
2022/05/26 13:21:23;;;;;;;;;;;18.20;99.90;;;;;;4991969;28;19927;-70
2022/05/26 13:23:50;;;;;;;;;;;18.20;99.90;;;;;;4993010;28;19926;-69
2022/05/26 13:26:17;;;;;;;;;;;18.20;99.90;;;;;;4996517;28;19976;-68
2022/05/26 13:28:47;;;;;;;;;;;18.30;99.90;;;;;;5012578;28;19921;-67
2022/05/26 13:33:57;;;;;;;;;;;18.20;99.90;;;;;;4996338;28;19921;-70
2022/05/26 13:36:31;;;;;;;;;;;17.80;99.90;;;;;;4975786;28;19925;-68
2022/05/26 13:39:17;;;;;;;;;;;17.70;99.90;;;;;;4992805;28;19928;-68
2022/05/26 13:41:44;;;;;;;;;;;17.70;99.90;;;;;;5008818;28;20374;-68
2022/05/26 13:44:13;;;;;;;;;;;17.80;99.90;;;;;;4995853;28;19921;-68
2022/05/26 13:46:40;;;;;;;;;;;17.70;99.90;;;;;;4995688;28;20388;-67
2022/05/26 13:49:19;;;;;;;;;;;17.60;99.90;;;;;;4996127;28;19928;-68
2022/05/26 13:51:48;;;;;;;;;;;17.50;99.90;;;;;;4992247;28;19963;-67
2022/05/26 13:54:20;;;;;;;;;;;17.50;99.90;;;;;;4992302;28;20425;-68
2022/05/26 13:56:47;;;;;;;;;;;17.50;99.90;;;;;;5007873;28;19925;-68
2022/05/26 13:59:14;;;;;;;;;;;17.50;99.90;;;;;;4995007;28;19932;-68
2022/05/26 14:01:51;;;;;;;;;;;17.50;99.90;;;;;;4995417;28;19925;-68
2022/05/26 14:04:29;;;;;;;;;;;17.50;99.90;;;;;;5011836;28;19926;-69
2022/05/26 14:06:55;;;;;;;;;;;17.50;99.90;;;;;;4979787;28;19921;-68
2022/05/26 14:09:29;;;;;;;;;;;17.60;99.90;;;;;;4992226;28;19921;-68
2022/05/26 14:12:05;;;;;;;;;;;17.60;99.90;;;;;;4990850;28;20349;-68
2022/05/26 14:14:31;;;;;;;;;;;17.60;99.90;;;;;;4991555;28;19922;-68
2022/05/26 14:16:58;;;;;;;;;;;17.60;99.90;;;;;;4990561;28;19925;-70
2022/05/26 14:19:28;;;;;;;;;;;17.50;99.90;;;;;;4992981;28;20299;-68